Time;durP1;ratioP1;P1;durP2;ratioP2;P2;SDS_P1;SDS_P2;PMS_P1;PMS_P2;Temp;Humidity;BMP_temperature;BMP_pressure;BME280_temperature;BME280_humidity;BME280_pressure;Samples;Min_cycle;Max_cycle;Signal;HPM_P1;HPM_P2
2023/12/10 00:01:51;;;;;;;23.27;9.90;;;-8.70;62.50;;;;;;6275422;22;20453;-90
2023/12/10 00:04:22;;;;;;;20.05;8.77;;;-8.60;62.90;;;;;;6248179;22;20023;-90
2023/12/10 00:06:50;;;;;;;23.70;9.18;;;-8.60;62.90;;;;;;6223043;22;20024;-89
2023/12/10 00:09:18;;;;;;;25.80;9.90;;;-8.60;62.80;;;;;;6275697;22;20026;-91
2023/12/10 00:11:45;;;;;;;27.30;9.07;;;-8.70;62.90;;;;;;6248542;22;20047;-91
2023/12/10 00:14:13;;;;;;;26.42;10.75;;;-8.70;63.20;;;;;;6247882;22;20445;-90
2023/12/10 00:16:41;;;;;;;28.58;11.40;;;-8.70;63.40;;;;;;6248045;22;20024;-89
2023/12/10 00:19:11;;;;;;;27.15;10.23;;;-8.60;63.50;;;;;;6247656;22;20030;-92
2023/12/10 00:21:39;;;;;;;29.48;10.52;;;-8.60;63.60;;;;;;6248891;22;20413;-90
2023/12/10 00:24:07;;;;;;;23.27;9.50;;;-8.60;63.50;;;;;;6247747;22;20030;-92
2023/12/10 00:26:36;;;;;;;19.15;8.15;;;-8.60;63.40;;;;;;6230648;23;20028;-91
2023/12/10 00:29:04;;;;;;;22.52;9.15;;;-8.60;63.30;;;;;;6241656;23;20123;-91
2023/12/10 00:31:34;;;;;;;25.85;9.90;;;-8.60;63.30;;;;;;6217083;23;20494;-91
2023/12/10 00:34:02;;;;;;;18.85;8.38;;;-8.60;63.10;;;;;;6245819;22;20447;-91
2023/12/10 00:36:31;;;;;;;26.48;9.70;;;-8.80;62.90;;;;;;6218049;23;20464;-90
2023/12/10 00:38:59;;;;;;;21.92;9.20;;;-8.80;63.30;;;;;;6243705;23;20023;-93
2023/12/10 00:41:27;;;;;;;22.13;8.57;;;-8.70;63.30;;;;;;6218921;23;20464;-93
2023/12/10 00:43:55;;;;;;;20.70;8.85;;;-8.70;63.10;;;;;;6245804;22;20020;-93
2023/12/10 00:46:23;;;;;;;20.10;9.80;;;-8.70;63.10;;;;;;6217515;23;20430;-91
2023/12/10 00:48:51;;;;;;;20.52;9.68;;;-8.70;63.10;;;;;;6269379;22;20507;-90
2023/12/10 00:51:24;;;;;;;23.65;9.30;;;-8.70;63.30;;;;;;6243550;23;20030;-90
2023/12/10 00:53:55;;;;;;;;;;;-8.70;63.30;;;;;;6269726;22;20024;-92
2023/12/10 00:56:23;;;;;;;16.55;7.00;;;-8.80;63.40;;;;;;6244830;23;20022;-91
2023/12/10 00:58:51;;;;;;;20.45;8.00;;;-8.80;63.60;;;;;;6242314;23;20024;-92
2023/12/10 01:01:21;;;;;;;21.55;8.40;;;-8.70;63.60;;;;;;6216374;23;20034;-91
2023/12/10 01:03:50;;;;;;;19.70;8.70;;;-8.80;63.40;;;;;;6242483;23;20460;-92
2023/12/10 01:06:18;;;;;;;24.48;9.05;;;-8.80;63.20;;;;;;6217203;23;20035;-90
2023/12/10 01:08:46;;;;;;;19.42;7.65;;;-8.80;63.40;;;;;;6242196;23;20034;-91
2023/12/10 01:11:15;;;;;;;20.60;9.85;;;-8.80;63.30;;;;;;6242290;23;20050;-89
2023/12/10 01:13:45;;;;;;;14.25;5.90;;;-8.70;63.60;;;;;;6267603;22;20034;-92
2023/12/10 01:16:16;;;;;;;16.38;7.80;;;-8.80;63.00;;;;;;6216565;23;20066;-91
2023/12/10 01:18:44;;;;;;;22.90;7.95;;;-8.80;62.90;;;;;;6266173;22;20020;-90
2023/12/10 01:21:13;;;;;;;24.17;9.00;;;-8.70;63.20;;;;;;6242340;23;20119;-91
2023/12/10 01:23:41;;;;;;;19.08;9.20;;;-8.70;62.90;;;;;;6243844;23;20027;-91
2023/12/10 01:26:12;;;;;;;23.50;9.13;;;-8.70;62.70;;;;;;6226234;23;20020;-90
2023/12/10 01:28:44;;;;;;;18.10;8.02;;;-8.60;62.90;;;;;;6252185;22;20102;-90
2023/12/10 01:31:16;;;;;;;10.73;4.60;;;-8.60;62.60;;;;;;6273705;22;20020;-89
2023/12/10 01:33:47;;;;;;;19.42;8.38;;;-8.70;62.40;;;;;;6252546;23;20024;-89
2023/12/10 01:36:23;;;;;;;19.20;8.55;;;-8.80;62.40;;;;;;6255451;23;20096;-89
2023/12/10 01:38:52;;;;;;;25.67;9.20;;;-8.80;62.40;;;;;;6256400;23;20019;-88
2023/12/10 01:41:20;;;;;;;18.35;8.48;;;-8.80;62.50;;;;;;6248895;22;20024;-88
2023/12/10 01:43:49;;;;;;;18.88;7.50;;;-8.70;62.40;;;;;;6232009;23;20059;-87
2023/12/10 01:46:17;;;;;;;19.27;7.53;;;-8.70;62.50;;;;;;6249473;23;20415;-87
2023/12/10 01:48:47;;;;;;;19.67;8.93;;;-8.80;62.00;;;;;;6249321;22;20024;-88
2023/12/10 01:51:15;;;;;;;20.60;8.38;;;-8.70;62.40;;;;;;6245492;23;20400;-87
2023/12/10 01:53:43;;;;;;;15.25;7.13;;;-8.70;62.00;;;;;;6247131;22;20024;-86
2023/12/10 01:56:11;;;;;;;23.88;8.25;;;-8.60;62.10;;;;;;6219949;23;20020;-87
2023/12/10 01:58:40;;;;;;;16.83;7.55;;;-8.60;62.00;;;;;;6243869;23;20111;-86
2023/12/10 02:01:10;;;;;;;19.77;7.88;;;-8.60;61.90;;;;;;6242115;23;20020;-86
2023/12/10 02:03:37;;;;;;;19.50;8.30;;;-8.60;61.70;;;;;;6243629;22;20028;-86
2023/12/10 02:06:06;;;;;;;15.93;7.82;;;-8.60;61.40;;;;;;6242097;23;20026;-86
2023/12/10 02:08:34;;;;;;;20.23;8.75;;;-8.50;61.50;;;;;;6243747;22;20134;-86
2023/12/10 02:11:02;;;;;;;19.77;8.50;;;-8.50;61.40;;;;;;6216931;23;20027;-86
2023/12/10 02:13:30;;;;;;;20.00;8.35;;;-8.60;61.20;;;;;;6242344;22;20024;-86
2023/12/10 02:15:58;;;;;;;18.33;8.20;;;-8.70;61.20;;;;;;6243152;22;20020;-87
2023/12/10 02:18:28;;;;;;;21.30;8.50;;;-8.60;61.50;;;;;;6244281;22;20504;-86
2023/12/10 02:21:15;;;;;;;20.20;9.40;;;-8.60;61.40;;;;;;6242996;23;20020;-87
2023/12/10 02:23:55;;;;;;;14.05;4.97;;;-8.60;61.40;;;;;;6243379;23;20024;-88
2023/12/10 02:26:24;;;;;;;19.92;7.40;;;-8.50;61.40;;;;;;6266275;22;20026;-87
2023/12/10 02:28:52;;;;;;;20.23;9.45;;;-8.50;61.30;;;;;;6274380;22;20047;-88
2023/12/10 02:31:20;;;;;;;19.02;8.65;;;-8.50;61.40;;;;;;6275244;22;20474;-87
2023/12/10 02:33:48;;;;;;;19.60;8.15;;;-8.60;61.00;;;;;;6274982;22;20325;-85
2023/12/10 02:36:15;;;;;;;18.05;8.05;;;-8.60;61.30;;;;;;6273554;22;20107;-86
2023/12/10 02:38:45;;;;;;;17.27;8.10;;;-8.60;61.40;;;;;;6271524;22;20020;-86
2023/12/10 02:41:13;;;;;;;21.60;7.78;;;-8.70;61.50;;;;;;6274956;22;20028;-87
2023/12/10 02:43:42;;;;;;;19.15;8.18;;;-8.70;61.60;;;;;;6273056;22;20030;-88
2023/12/10 02:46:10;;;;;;;14.05;6.90;;;-8.70;61.70;;;;;;6276598;22;20027;-86
2023/12/10 02:48:38;;;;;;;17.17;7.50;;;-8.70;62.00;;;;;;6249659;22;20476;-87
2023/12/10 02:51:06;;;;;;;16.13;7.70;;;-8.70;61.90;;;;;;6276055;22;20030;-84
2023/12/10 02:53:34;;;;;;;19.80;8.05;;;-8.70;62.10;;;;;;6273263;22;20050;-83
2023/12/10 02:56:02;;;;;;;18.80;7.90;;;-8.70;62.10;;;;;;6273667;22;20023;-84
2023/12/10 02:58:30;;;;;;;19.75;8.07;;;-8.80;62.20;;;;;;6274143;22;20476;-84
2023/12/10 03:00:59;;;;;;;21.85;8.40;;;-8.80;62.40;;;;;;6272633;22;20024;-83
2023/12/10 03:03:27;;;;;;;17.33;7.72;;;-8.80;62.60;;;;;;6275352;22;20039;-84
2023/12/10 03:05:55;;;;;;;22.20;8.25;;;-8.70;62.70;;;;;;6275080;22;20027;-82
2023/12/10 03:08:22;;;;;;;20.40;8.25;;;-8.80;62.60;;;;;;6273309;22;20099;-86
2023/12/10 03:10:50;;;;;;;16.52;7.40;;;-8.80;62.50;;;;;;6273152;22;20020;-85
2023/12/10 03:13:18;;;;;;;22.08;10.15;;;-8.70;62.60;;;;;;6275998;22;20058;-83
2023/12/10 03:15:47;;;;;;;19.83;7.43;;;-8.80;62.70;;;;;;6274626;22;20102;-84
2023/12/10 03:18:16;;;;;;;21.70;8.07;;;-8.70;62.90;;;;;;6248287;22;20054;-84
2023/12/10 03:20:44;;;;;;;15.85;7.55;;;-8.80;62.80;;;;;;6275226;22;20019;-84
2023/12/10 03:23:14;;;;;;;16.02;8.05;;;-8.80;62.80;;;;;;6274612;22;20019;-83
2023/12/10 03:25:43;;;;;;;16.15;8.15;;;-8.80;62.80;;;;;;6260595;22;20107;-83
2023/12/10 03:28:53;;;;;;;17.52;6.55;;;-8.90;62.90;;;;;;6248245;23;20028;-83
2023/12/10 03:31:31;;;;;;;20.83;8.32;;;-8.90;62.90;;;;;;6220213;23;20024;-83
2023/12/10 03:34:31;;;;;;;17.73;8.48;;;-8.90;62.90;;;;;;6244035;23;20522;-84
2023/12/10 03:37:39;;;;;;;16.30;7.25;;;-8.90;62.70;;;;;;6244267;22;20023;-84
2023/12/10 03:40:20;;;;;;;18.83;7.22;;;-9.00;63.40;;;;;;6267529;22;20020;-84
2023/12/10 03:43:13;;;;;;;16.55;7.25;;;-9.00;62.70;;;;;;6244404;23;20066;-82
2023/12/10 03:46:12;;;;;;;15.75;7.20;;;-9.00;62.90;;;;;;6243805;22;20024;-82
2023/12/10 03:48:44;;;;;;;26.17;8.57;;;-8.90;62.90;;;;;;6242179;23;20028;-83
2023/12/10 03:51:34;;;;;;;18.95;8.68;;;-9.00;62.90;;;;;;6184268;23;20365;-83
2023/12/10 03:54:02;;;;;;;17.17;8.10;;;-9.00;62.80;;;;;;6242025;23;20023;-83
2023/12/10 03:56:41;;;;;;;18.58;7.55;;;-9.00;62.80;;;;;;6243737;22;20495;-82
2023/12/10 03:59:31;;;;;;;;;;;;;;;;;;;;;
2023/12/10 04:02:20;;;;;;;13.43;5.33;;;-8.90;63.00;;;;;;6241557;23;20457;-85
2023/12/10 04:05:35;;;;;;;;;;;;;;;;;;;;;
2023/12/10 04:08:14;;;;;;;15.00;6.88;;;-8.90;62.50;;;;;;6244148;23;20082;-84
2023/12/10 04:11:03;;;;;;;;;;;;;;;;;;;;;
2023/12/10 04:13:53;;;;;;;20.15;7.57;;;-8.90;62.50;;;;;;6219113;23;20042;-84
2023/12/10 04:16:32;;;;;;;18.10;8.13;;;-8.90;62.40;;;;;;6243712;23;20020;-83
2023/12/10 04:19:09;;;;;;;16.73;7.30;;;-8.90;62.40;;;;;;6217001;23;20020;-81
2023/12/10 04:22:03;;;;;;;14.63;6.93;;;-8.80;62.30;;;;;;6243674;22;20499;-82
2023/12/10 04:25:03;;;;;;;15.85;6.75;;;-8.80;62.50;;;;;;6247132;22;20356;-83
2023/12/10 04:27:34;;;;;;;16.40;6.10;;;-8.90;62.20;;;;;;6300987;22;20321;-84
2023/12/10 04:30:02;;;;;;;18.90;7.82;;;-9.00;62.30;;;;;;6250153;22;20019;-84
2023/12/10 04:32:34;;;;;;;18.02;7.93;;;-9.00;62.50;;;;;;6290900;22;20129;-83
2023/12/10 04:35:02;;;;;;;19.90;7.72;;;-8.90;62.60;;;;;;6306490;22;20034;-83
2023/12/10 04:38:39;;;;;;;;;;;;;;;;;;;;;
2023/12/10 04:41:54;;;;;;;19.83;7.60;;;-9.10;62.60;;;;;;5816822;24;20038;-88
2023/12/10 04:45:30;;;;;;;;;;;;;;;;;;;;;
2023/12/10 04:48:24;;;;;;;16.30;8.07;;;-8.90;62.80;;;;;;5599704;25;20038;-88
2023/12/10 04:50:55;;;;;;;17.02;6.78;;;-9.00;62.60;;;;;;5648692;25;20105;-85
2023/12/10 04:53:23;;;;;;;15.85;6.35;;;-9.10;62.90;;;;;;5668496;25;20033;-88
2023/12/10 04:55:50;;;;;;;19.98;8.63;;;-9.00;63.00;;;;;;5709713;24;20043;-85
2023/12/10 04:58:20;;;;;;;16.00;7.82;;;-9.00;63.10;;;;;;5803054;24;20296;-85
2023/12/10 05:00:51;;;;;;;13.98;6.38;;;-8.90;63.20;;;;;;5803243;24;20090;-84
2023/12/10 05:03:20;;;;;;;18.45;7.30;;;-9.00;62.80;;;;;;5888926;24;20633;-85
2023/12/10 05:06:02;;;;;;;17.20;7.93;;;-9.00;62.80;;;;;;5875336;24;20113;-86
2023/12/10 05:08:47;;;;;;;;;;;;;;;;;;;;;
2023/12/10 05:11:29;;;;;;;17.17;7.43;;;-8.90;63.00;;;;;;5892357;24;20051;-85
2023/12/10 05:14:15;;;;;;;17.42;7.00;;;-9.00;62.60;;;;;;5898523;24;20065;-85
2023/12/10 05:16:46;;;;;;;18.00;7.80;;;-8.90;62.80;;;;;;5974253;23;20066;-86
2023/12/10 05:19:14;;;;;;;20.83;8.15;;;-8.90;62.80;;;;;;5964959;23;20033;-84
2023/12/10 05:21:43;;;;;;;17.42;8.93;;;-8.90;62.50;;;;;;5986929;23;20080;-86
2023/12/10 05:24:14;;;;;;;21.80;7.80;;;-8.90;62.70;;;;;;5983622;23;20057;-87
2023/12/10 05:26:42;;;;;;;17.92;7.88;;;-8.90;62.40;;;;;;5989412;23;20769;-85
2023/12/10 05:29:12;;;;;;;17.52;7.90;;;-8.90;62.50;;;;;;6040965;23;20082;-87
2023/12/10 05:31:49;;;;;;;17.90;7.43;;;-8.90;62.30;;;;;;6026216;23;20368;-86
2023/12/10 05:34:20;;;;;;;21.55;7.13;;;-8.90;62.40;;;;;;6097363;23;20083;-84
2023/12/10 05:37:00;;;;;;;;;;;;;;;;;;;;;
2023/12/10 07:42:57;;;;;;;20.20;7.45;;;-8.80;61.80;;;;;;4927876;28;20055;-85
2023/12/10 07:45:35;;;;;;;;;;;;;;;;;;;;;
2023/12/10 07:48:40;;;;;;;;;;;;;;;;;;;;;
2023/12/10 07:51:12;;;;;;;17.80;8.43;;;-8.70;61.60;;;;;;5053781;28;20053;-84
2023/12/10 07:53:42;;;;;;;13.00;6.28;;;-8.80;60.90;;;;;;5050777;28;20068;-83
2023/12/10 07:56:12;;;;;;;17.60;9.45;;;-8.80;61.00;;;;;;5054762;28;20513;-83
2023/12/10 07:58:44;;;;;;;19.25;7.90;;;-8.80;61.20;;;;;;5041887;28;20041;-84
2023/12/10 08:01:11;;;;;;;19.88;9.05;;;-8.80;61.20;;;;;;5048521;28;20056;-83
2023/12/10 08:03:39;;;;;;;18.70;7.55;;;-8.70;61.40;;;;;;5048304;28;20119;-85
2023/12/10 08:06:08;;;;;;;22.40;8.13;;;-8.70;61.00;;;;;;5050171;28;20509;-83
2023/12/10 08:08:36;;;;;;;29.30;11.40;;;-8.70;60.80;;;;;;5044927;28;20045;-83
2023/12/10 08:11:05;;;;;;;22.52;8.30;;;-8.80;60.50;;;;;;5049619;28;20598;-83
2023/12/10 08:13:37;;;;;;;21.65;9.48;;;-8.60;61.10;;;;;;5045630;28;20057;-84
2023/12/10 08:16:11;;;;;;;20.15;8.63;;;-8.60;60.60;;;;;;5030365;28;20054;-85
2023/12/10 08:18:39;;;;;;;18.08;7.55;;;-8.60;60.40;;;;;;5017479;28;20504;-85
2023/12/10 08:21:10;;;;;;;21.83;8.98;;;-8.60;60.20;;;;;;5050938;28;20489;-84
2023/12/10 08:23:38;;;;;;;25.33;9.13;;;-8.60;60.10;;;;;;5038643;28;20057;-85
2023/12/10 08:26:07;;;;;;;22.60;9.35;;;-8.40;60.50;;;;;;5038884;28;20053;-83
2023/12/10 08:28:40;;;;;;;32.70;9.90;;;-8.50;60.30;;;;;;5032480;28;20045;-81
2023/12/10 08:31:17;;;;;;;20.00;7.78;;;-8.40;60.30;;;;;;5020034;28;20140;-82
2023/12/10 08:34:01;;;;;;;22.52;7.68;;;-8.50;60.00;;;;;;5029751;28;20440;-83
2023/12/10 08:36:32;;;;;;;28.58;10.35;;;-8.40;60.20;;;;;;5035777;28;20544;-81
2023/12/10 08:39:03;;;;;;;23.30;9.13;;;-8.50;59.90;;;;;;5043399;28;20140;-84
2023/12/10 08:41:32;;;;;;;13.93;6.10;;;-8.40;60.00;;;;;;5048539;28;20641;-84
2023/12/10 08:44:00;;;;;;;18.02;8.75;;;-8.40;59.60;;;;;;5034445;28;20046;-84
2023/12/10 08:46:29;;;;;;;19.60;9.15;;;-8.50;59.60;;;;;;5025303;28;20394;-84
2023/12/10 08:49:25;;;;;;;22.95;10.05;;;-8.40;60.10;;;;;;5025548;28;20100;-84
2023/12/10 08:51:53;;;;;;;20.25;7.53;;;-8.50;59.50;;;;;;5025548;28;20049;-85
2023/12/10 08:54:21;;;;;;;24.90;9.50;;;-8.40;59.70;;;;;;5026229;28;20548;-85
2023/12/10 08:56:49;;;;;;;24.77;10.20;;;-8.30;59.90;;;;;;5022794;28;20083;-86
2023/12/10 08:59:18;;;;;;;19.67;9.00;;;-8.20;59.60;;;;;;5017900;28;20052;-85
2023/12/10 09:01:47;;;;;;;19.58;9.25;;;-8.20;59.40;;;;;;5025655;28;20488;-86
2023/12/10 09:04:19;;;;;;;20.60;8.73;;;-8.30;59.00;;;;;;5008036;28;20628;-86
2023/12/10 09:06:47;;;;;;;17.48;8.63;;;-8.40;59.00;;;;;;5018645;28;20428;-85
2023/12/10 09:09:22;;;;;;;16.73;7.65;;;-8.30;59.00;;;;;;5017824;28;20874;-85
2023/12/10 09:12:12;;;;;;;22.27;8.95;;;-8.30;59.00;;;;;;4967886;28;20042;-86
2023/12/10 09:14:58;;;;;;;;;;;;;;;;;;;;;
2023/12/10 09:18:04;;;;;;;23.13;9.48;;;-8.20;59.10;;;;;;5017331;28;20551;-85
2023/12/10 09:21:14;;;;;;;;;;;;;;;;;;;;;
2023/12/10 09:24:10;;;;;;;;;;;;;;;;;;;;;
2023/12/10 09:27:18;;;;;;;;;;;;;;;;;;;;;
2023/12/10 09:30:42;;;;;;;24.90;8.10;;;-8.00;58.60;;;;;;5015140;28;20055;-83
2023/12/10 09:34:16;;;;;;;;;;;;;;;;;;;;;
2023/12/10 09:37:54;;;;;;;;;;;;;;;;;;;;;
2023/12/10 09:41:46;;;;;;;;;;;;;;;;;;;;;
2023/12/10 09:45:11;;;;;;;;;;;;;;;;;;;;;
2023/12/10 09:48:01;;;;;;;23.48;9.20;;;-7.90;58.20;;;;;;4751663;30;20082;-90
2023/12/10 09:51:27;;;;;;;;;;;;;;;;;;;;;
2023/12/10 09:55:17;;;;;;;;;;;;;;;;;;;;;
2023/12/10 10:21:32;;;;;;;;;;;;;;;;;;;;;
2023/12/10 10:39:27;;;;;;;;;;;;;;;;;;;;;
2023/12/10 11:14:33;;;;;;;;;;;;;;;;;;;;;
2023/12/10 11:33:26;;;;;;;;;;;;;;;;;;;;;
2023/12/10 11:50:55;;;;;;;20.77;8.80;;;-7.80;58.40;;;;;;5883924;23;20041;-87
2023/12/10 11:53:35;;;;;;;21.92;9.05;;;-8.00;58.10;;;;;;6175231;23;20502;-85
2023/12/10 12:18:48;;;;;;;24.88;9.48;;;-8.30;58.40;;;;;;5147006;27;20217;-83
2023/12/10 12:22:14;;;;;;;22.35;9.30;;;-8.30;58.60;;;;;;5060733;28;20072;-81
2023/12/10 12:25:23;;;;;;;23.30;10.02;;;-8.40;59.10;;;;;;4961713;28;20059;-83
2023/12/10 12:35:22;;;;;;;24.55;9.98;;;-8.50;59.30;;;;;;4777773;29;20107;-84
2023/12/10 12:37:55;;;;;;;25.55;11.50;;;-8.50;59.40;;;;;;4729052;29;20062;-82
2023/12/10 12:40:54;;;;;;;22.55;8.88;;;-8.70;59.50;;;;;;4667628;30;20128;-82
2023/12/10 12:43:24;;;;;;;23.23;9.38;;;-8.80;59.50;;;;;;4726003;30;21179;-84
2023/12/10 12:45:53;;;;;;;23.45;10.68;;;-8.80;59.90;;;;;;4742266;29;20061;-85
2023/12/10 12:48:24;;;;;;;19.20;8.18;;;-8.80;60.00;;;;;;4785693;29;20051;-85
2023/12/10 12:51:02;;;;;;;23.52;9.65;;;-8.90;60.00;;;;;;4816991;29;20065;-84
2023/12/10 12:53:30;;;;;;;19.73;9.13;;;-8.90;60.10;;;;;;4706345;29;1579718;-84
2023/12/10 12:55:58;;;;;;;23.48;8.95;;;-9.00;60.40;;;;;;4708718;30;20857;-83
2023/12/10 12:58:26;;;;;;;25.27;11.00;;;-9.00;60.70;;;;;;4770684;29;20054;-83
2023/12/10 13:00:54;;;;;;;22.85;9.30;;;-9.10;60.80;;;;;;4831347;29;20852;-82
2023/12/10 13:03:22;;;;;;;23.23;10.05;;;-9.10;60.90;;;;;;4866017;29;20541;-83
2023/12/10 13:05:59;;;;;;;28.20;10.77;;;-9.10;61.10;;;;;;4896873;29;20052;-83
2023/12/10 13:08:27;;;;;;;24.88;9.60;;;-9.20;60.90;;;;;;4899217;29;20058;-83
2023/12/10 13:10:55;;;;;;;28.42;12.48;;;-9.20;61.00;;;;;;4904189;29;20531;-83
2023/12/10 13:13:26;;;;;;;24.40;10.35;;;-9.20;61.30;;;;;;4892193;29;20774;-84
2023/12/10 13:15:53;;;;;;;24.13;9.60;;;-9.10;61.40;;;;;;4899864;29;20047;-84
2023/12/10 13:18:21;;;;;;;24.08;9.82;;;-9.30;61.20;;;;;;4890857;29;20048;-84
2023/12/10 13:20:50;;;;;;;29.95;10.65;;;-9.30;61.40;;;;;;4891356;29;20495;-88
2023/12/10 13:37:57;;;;;;;22.60;9.20;;;-9.30;61.70;;;;;;5125451;27;21015;-84
2023/12/10 13:49:40;;;;;;;;;;;;;;;;;;;;;
2023/12/10 13:52:19;;;;;;;25.60;9.00;;;-9.30;61.70;;;;;;5040817;28;20144;-83
2023/12/10 13:54:47;;;;;;;30.63;11.80;;;-9.30;61.80;;;;;;5041290;28;20053;-81
2023/12/10 13:57:17;;;;;;;20.88;9.20;;;-9.30;61.80;;;;;;5041524;28;20504;-81
2023/12/10 13:59:44;;;;;;;17.63;7.47;;;-9.40;61.70;;;;;;5042139;28;20037;-81
2023/12/10 14:02:12;;;;;;;24.23;10.85;;;-9.50;61.80;;;;;;5046376;28;20073;-81
2023/12/10 14:04:40;;;;;;;26.05;9.48;;;-9.40;62.30;;;;;;5049799;28;20668;-81
2023/12/10 14:07:08;;;;;;;26.23;9.70;;;-9.50;62.20;;;;;;5033533;28;20456;-82
2023/12/10 14:09:36;;;;;;;24.20;10.63;;;-9.50;62.40;;;;;;5041976;28;20580;-81
2023/12/10 14:12:20;;;;;;;26.00;10.50;;;-9.40;62.40;;;;;;5023075;28;20048;-83
2023/12/10 14:14:50;;;;;;;29.15;12.10;;;-9.40;62.40;;;;;;5045345;28;20048;-80
2023/12/10 14:17:18;;;;;;;29.15;10.48;;;-9.50;62.30;;;;;;5038863;28;20528;-82
2023/12/10 14:19:48;;;;;;;28.77;11.18;;;-9.50;62.30;;;;;;5042957;28;20146;-81
2023/12/10 14:22:15;;;;;;;25.50;10.15;;;-9.60;62.50;;;;;;5041262;28;20045;-83
2023/12/10 14:24:43;;;;;;;29.13;10.73;;;-9.60;62.60;;;;;;5038028;28;20055;-81
2023/12/10 14:27:12;;;;;;;25.98;11.48;;;-9.60;62.60;;;;;;5039607;28;20075;-83
2023/12/10 14:29:45;;;;;;;27.83;9.05;;;-9.60;62.70;;;;;;5037106;28;20746;-86
2023/12/10 14:32:17;;;;;;;27.48;10.77;;;-9.60;62.80;;;;;;5045372;28;20045;-84
2023/12/10 14:34:46;;;;;;;26.00;10.50;;;-9.70;62.80;;;;;;5041627;28;20064;-84
2023/12/10 14:37:14;;;;;;;22.65;10.18;;;-9.70;63.00;;;;;;5037208;28;20041;-82
2023/12/10 14:39:41;;;;;;;31.45;10.80;;;-9.70;63.20;;;;;;5042233;28;20531;-83
2023/12/10 14:42:11;;;;;;;25.52;9.55;;;-9.70;63.20;;;;;;5040839;28;20049;-86
2023/12/10 14:44:47;;;;;;;25.20;10.00;;;-9.80;63.20;;;;;;5039442;28;20048;-85
2023/12/10 14:47:22;;;;;;;23.00;9.55;;;-9.80;63.20;;;;;;5032157;28;20516;-81
2023/12/10 14:49:53;;;;;;;25.60;10.32;;;-9.70;63.30;;;;;;5030365;28;20088;-81
2023/12/10 14:52:23;;;;;;;26.05;11.23;;;-9.70;63.20;;;;;;5029465;28;20042;-84
2023/12/10 14:55:01;;;;;;;29.35;9.57;;;-9.60;64.00;;;;;;5010822;28;20135;-86
2023/12/10 14:58:11;;;;;;;;;;;;;;;;;;;;;
2023/12/10 15:09:41;;;;;;;;;;;;;;;;;;;;;
2023/12/10 15:14:08;;;;;;;21.58;9.68;;;-9.30;62.50;;;;;;4969655;28;20125;-82
2023/12/10 15:17:14;;;;;;;32.25;12.75;;;-9.20;62.10;;;;;;4935447;28;20062;-81
2023/12/10 15:20:02;;;;;;;35.58;14.00;;;-9.20;62.00;;;;;;4946735;28;20150;-82
2023/12/10 15:22:57;;;;;;;31.20;11.98;;;-9.20;61.80;;;;;;4952026;28;20042;-82
2023/12/10 15:25:31;;;;;;;31.05;12.90;;;-9.20;61.70;;;;;;5020300;28;20046;-80
2023/12/10 15:28:41;;;;;;;;;;;;;;;;;;;;;
2023/12/10 15:32:27;;;;;;;;;;;;;;;;;;;;;
2023/12/10 15:35:25;;;;;;;32.05;12.18;;;-9.20;61.80;;;;;;4935474;28;20090;-85
2023/12/10 15:37:59;;;;;;;30.02;11.35;;;-9.10;62.10;;;;;;5038957;28;20053;-81
2023/12/10 15:41:13;;;;;;;;;;;;;;;;;;;;;
2023/12/10 15:43:42;;;;;;;37.85;13.27;;;-9.10;61.80;;;;;;5030458;28;20045;-80
2023/12/10 15:46:17;;;;;;;32.33;11.40;;;-9.20;61.70;;;;;;5030090;28;20041;-82
2023/12/10 15:48:45;;;;;;;31.88;12.45;;;-9.10;61.90;;;;;;5022633;28;20042;-80
2023/12/10 15:51:13;;;;;;;32.05;11.32;;;-9.00;61.80;;;;;;5022477;28;20038;-81
2023/12/10 15:54:31;;;;;;;;;;;;;;;;;;;;;
2023/12/10 15:57:55;;;;;;;;;;;;;;;;;;;;;
2023/12/10 16:01:24;;;;;;;;;;;;;;;;;;;;;
2023/12/10 16:04:37;;;;;;;;;;;;;;;;;;;;;
2023/12/10 16:07:42;;;;;;;26.75;9.73;;;-9.00;61.70;;;;;;4935266;28;20059;-80
2023/12/10 16:14:53;;;;;;;;;;;;;;;;;;;;;
2023/12/10 16:17:56;;;;;;;;;;;;;;;;;;;;;
2023/12/10 16:27:32;;;;;;;20.10;8.80;;;-9.00;61.50;;;;;;4732038;30;20075;-81
2023/12/10 16:30:02;;;;;;;27.92;9.88;;;-9.00;61.70;;;;;;4785551;29;20048;-86
2023/12/10 16:32:33;;;;;;;19.70;9.70;;;-8.90;61.70;;;;;;5011427;28;20067;-86
2023/12/10 16:35:08;;;;;;;22.10;8.90;;;-8.90;61.70;;;;;;5026296;28;20050;-85
2023/12/10 16:37:44;;;;;;;26.05;10.23;;;-8.90;61.70;;;;;;5053793;28;20155;-85
2023/12/10 16:40:16;;;;;;;28.90;10.32;;;-8.90;61.90;;;;;;5029123;28;20064;-87
2023/12/10 16:42:48;;;;;;;21.07;10.10;;;-8.90;61.70;;;;;;5051223;28;20045;-85
2023/12/10 16:45:20;;;;;;;20.85;8.95;;;-8.90;61.70;;;;;;5013182;28;20103;-83
2023/12/10 16:47:47;;;;;;;27.15;10.20;;;-8.80;61.60;;;;;;4986576;28;20042;-86
2023/12/10 16:50:15;;;;;;;23.50;10.07;;;-8.90;61.50;;;;;;4983263;28;20053;-86
2023/12/10 16:52:43;;;;;;;23.05;9.75;;;-8.90;61.50;;;;;;4978787;28;20058;-85
2023/12/10 16:55:12;;;;;;;20.55;8.18;;;-8.90;61.90;;;;;;4988628;28;20571;-88
2023/12/10 16:57:40;;;;;;;27.73;10.05;;;-8.90;62.00;;;;;;4984634;28;20050;-86
2023/12/10 17:00:09;;;;;;;22.77;10.23;;;-8.90;62.10;;;;;;4992195;28;20121;-88
2023/12/10 17:02:40;;;;;;;23.27;9.80;;;-8.90;62.20;;;;;;4987447;28;20165;-87
2023/12/10 17:05:13;;;;;;;25.85;9.98;;;-8.90;62.20;;;;;;4974849;28;20080;-88
2023/12/10 17:07:41;;;;;;;22.17;10.25;;;-8.80;62.30;;;;;;4979922;28;20057;-82
2023/12/10 17:10:13;;;;;;;17.70;7.75;;;-8.80;62.00;;;;;;4983099;28;20049;-85
2023/12/10 17:12:49;;;;;;;21.33;9.57;;;-8.80;61.90;;;;;;4963789;28;20055;-82
2023/12/10 17:15:27;;;;;;;26.02;9.45;;;-8.80;62.00;;;;;;4983493;28;20042;-83
2023/12/10 17:18:01;;;;;;;28.38;10.65;;;-8.90;62.10;;;;;;4983446;28;20052;-82
2023/12/10 17:20:29;;;;;;;30.00;11.35;;;-8.80;62.30;;;;;;4981381;28;20503;-81
2023/12/10 17:23:10;;;;;;;26.35;10.38;;;-8.80;62.30;;;;;;4984189;28;20096;-81
2023/12/10 17:26:23;;;;;;;;;;;;;;;;;;;;;
2023/12/10 17:29:14;;;;;;;23.40;10.65;;;-8.90;62.20;;;;;;4909260;28;20063;-83
2023/12/10 17:39:02;;;;;;;;;;;;;;;;;;;;;
2023/12/10 17:56:22;;;;;;;23.42;10.43;;;-8.80;62.50;;;;;;4412765;31;20217;-80
2023/12/10 17:58:50;;;;;;;25.55;10.65;;;-8.80;62.70;;;;;;4452160;31;20110;-82
2023/12/10 18:01:27;;;;;;;26.58;10.43;;;-8.80;62.90;;;;;;4483988;31;20144;-83
2023/12/10 18:04:10;;;;;;;26.63;11.27;;;-8.80;62.90;;;;;;4532309;31;20068;-82
2023/12/10 18:06:40;;;;;;;26.23;10.85;;;-8.70;63.00;;;;;;4523229;31;20130;-85
2023/12/10 18:09:24;;;;;;;;;;;;;;;;;;;;;
2023/12/10 18:33:26;;;;;;;26.17;9.80;;;-8.80;63.30;;;;;;4805962;29;20057;-84
2023/12/10 18:36:04;;;;;;;29.70;11.15;;;-8.80;63.40;;;;;;4960553;28;20352;-83
2023/12/10 18:39:29;;;;;;;23.45;10.40;;;-8.70;63.50;;;;;;4976498;28;20275;-82
2023/12/10 18:42:22;;;;;;;28.13;10.68;;;-8.70;63.40;;;;;;4929665;28;20037;-85
2023/12/10 18:44:56;;;;;;;25.13;9.55;;;-8.80;63.20;;;;;;5046548;28;20133;-84
2023/12/10 18:47:32;;;;;;;29.13;10.43;;;-8.70;63.20;;;;;;5042973;28;20049;-85
2023/12/10 18:50:14;;;;;;;30.50;10.90;;;-8.70;63.20;;;;;;5045798;28;20057;-85
2023/12/10 18:52:42;;;;;;;29.67;9.70;;;-8.70;63.20;;;;;;5041062;28;20056;-81
2023/12/10 18:55:13;;;;;;;20.30;8.60;;;-8.60;63.20;;;;;;5041846;28;20056;-81
2023/12/10 18:57:41;;;;;;;26.95;10.82;;;-8.70;63.00;;;;;;5035830;28;20488;-84
2023/12/10 19:00:11;;;;;;;23.30;9.20;;;-8.70;62.90;;;;;;5048641;28;20489;-81
2023/12/10 19:02:43;;;;;;;30.77;11.27;;;-8.70;63.10;;;;;;5046245;28;20586;-82
2023/12/10 19:05:14;;;;;;;26.80;11.77;;;-8.70;63.10;;;;;;5038395;28;20060;-80
2023/12/10 19:07:44;;;;;;;21.50;9.73;;;-8.60;63.30;;;;;;5052505;28;20049;-83
2023/12/10 19:10:15;;;;;;;28.80;11.30;;;-8.60;63.30;;;;;;5048511;28;20091;-87
2023/12/10 19:16:06;;;;;;;26.48;10.80;;;-8.50;63.20;;;;;;5046937;28;20048;-85
2023/12/10 19:19:03;;;;;;;27.35;10.07;;;-8.50;63.70;;;;;;5040618;28;20045;-85
2023/12/10 19:22:09;;;;;;;23.38;10.07;;;-8.60;63.70;;;;;;5041390;28;20041;-82
2023/12/10 19:24:47;;;;;;;31.58;12.02;;;-8.30;65.10;;;;;;5024587;28;20040;-83
2023/12/10 19:27:15;;;;;;;26.35;10.32;;;-8.20;64.40;;;;;;5045240;28;20049;-82
2023/12/10 19:29:50;;;;;;;25.00;10.30;;;-8.20;63.60;;;;;;5018613;28;20149;-83
2023/12/10 19:32:25;;;;;;;27.77;11.57;;;-8.20;63.30;;;;;;5030299;28;20056;-82
2023/12/10 19:34:53;;;;;;;27.63;12.85;;;-8.20;63.10;;;;;;5029682;28;20505;-81
2023/12/10 19:37:22;;;;;;;23.38;11.20;;;-8.20;62.90;;;;;;5039475;28;20505;-83
2023/12/10 19:39:53;;;;;;;30.25;11.50;;;-8.20;62.80;;;;;;5031009;28;20081;-81
2023/12/10 19:42:27;;;;;;;29.35;11.20;;;-8.20;62.80;;;;;;5025164;28;20049;-81
2023/12/10 19:44:55;;;;;;;27.48;11.93;;;-8.20;62.70;;;;;;5038765;28;20064;-81
2023/12/10 19:47:23;;;;;;;26.88;11.02;;;-8.20;62.70;;;;;;5031638;28;20068;-81
2023/12/10 19:49:51;;;;;;;28.35;12.40;;;-8.20;62.70;;;;;;5029663;28;20092;-81
2023/12/10 19:52:36;;;;;;;27.00;12.25;;;-8.30;62.70;;;;;;5026745;28;20050;-81
2023/12/10 19:59:40;;;;;;;28.55;11.05;;;-8.40;62.90;;;;;;4997808;28;20095;-89
2023/12/10 20:02:32;;;;;;;29.27;12.13;;;-8.40;62.90;;;;;;4955521;28;20051;-83
2023/12/10 20:05:04;;;;;;;24.25;10.40;;;-8.40;63.20;;;;;;5029127;28;20549;-83
2023/12/10 20:07:33;;;;;;;25.10;10.98;;;-8.40;63.10;;;;;;5027807;28;20045;-81